Time;durP1;ratioP1;P1;durP2;ratioP2;P2;SDS_P1;SDS_P2;PMS_P1;PMS_P2;Temp;Humidity;BMP_temperature;BMP_pressure;BME280_temperature;BME280_humidity;BME280_pressure;Samples;Min_cycle;Max_cycle;Signal;HPM_P1;HPM_P2
2022/01/13 00:00:02;;;;;;;24.00;15.07;;;5.40;53.90;;;;;;5048617;28;20578;-51
2022/01/13 00:02:32;;;;;;;22.90;16.90;;;5.40;54.10;;;;;;5041022;28;20428;-53
2022/01/13 00:04:58;;;;;;;23.20;15.77;;;5.30;54.00;;;;;;5043022;28;20810;-51
2022/01/13 00:07:24;;;;;;;25.13;16.13;;;5.20;54.00;;;;;;5045508;28;20489;-50
2022/01/13 00:09:50;;;;;;;25.90;16.30;;;4.90;54.60;;;;;;5050860;28;20431;-48
2022/01/13 00:12:18;;;;;;;24.90;17.60;;;4.70;55.20;;;;;;5042515;28;20675;-50
2022/01/13 00:17:43;;;;;;;25.37;18.60;;;4.70;55.70;;;;;;5043957;28;20469;-51
2022/01/13 00:25:42;;;;;;;24.80;16.83;;;4.50;56.30;;;;;;5024239;28;20447;-49
2022/01/13 00:28:16;;;;;;;25.67;15.60;;;4.60;56.70;;;;;;5041653;28;20440;-52
2022/01/13 00:30:42;;;;;;;23.87;16.87;;;4.70;55.80;;;;;;5035837;28;20283;-50
2022/01/13 00:33:10;;;;;;;21.17;14.70;;;4.80;55.70;;;;;;5041011;28;20578;-50
2022/01/13 00:35:37;;;;;;;22.83;15.77;;;4.90;55.60;;;;;;5045736;28;20193;-53
2022/01/13 00:38:02;;;;;;;22.20;15.87;;;5.00;55.20;;;;;;5039095;28;20526;-49
2022/01/13 00:40:28;;;;;;;22.37;16.77;;;5.10;54.90;;;;;;5044778;28;21054;-49
2022/01/13 00:42:53;;;;;;;20.23;14.80;;;5.20;54.70;;;;;;5035593;28;20201;-50
2022/01/13 00:45:19;;;;;;;24.40;16.30;;;5.20;54.60;;;;;;5047277;28;20560;-50
2022/01/13 00:47:45;;;;;;;22.60;16.70;;;5.20;54.60;;;;;;5034802;28;20193;-50
2022/01/13 00:50:10;;;;;;;24.97;16.30;;;5.30;54.60;;;;;;5043364;28;20198;-50
2022/01/13 00:52:36;;;;;;;23.67;15.57;;;5.30;54.50;;;;;;5041603;28;20185;-49
2022/01/13 00:55:05;;;;;;;21.70;15.97;;;5.40;54.40;;;;;;5048194;28;20193;-49
2022/01/13 00:57:32;;;;;;;21.10;15.47;;;5.40;54.40;;;;;;5047246;28;20195;-52
2022/01/13 00:59:59;;;;;;;22.13;16.07;;;5.40;54.70;;;;;;5036202;28;20482;-52
2022/01/13 01:02:25;;;;;;;24.67;18.13;;;5.40;54.90;;;;;;5036090;28;20434;-50
2022/01/13 01:04:51;;;;;;;22.63;16.43;;;5.40;55.00;;;;;;5044890;28;20452;-49
2022/01/13 01:07:17;;;;;;;25.00;17.90;;;5.50;54.90;;;;;;5039906;28;20435;-49
2022/01/13 01:09:49;;;;;;;27.23;15.97;;;5.50;54.80;;;;;;5044030;28;20189;-49
2022/01/13 01:12:16;;;;;;;20.73;16.43;;;5.50;54.90;;;;;;5046316;28;20804;-50
2022/01/13 01:14:47;;;;;;;23.30;16.10;;;5.50;55.20;;;;;;5047124;28;20552;-51
2022/01/13 01:17:15;;;;;;;25.60;16.87;;;5.60;55.30;;;;;;5043251;28;20435;-52
2022/01/13 01:19:48;;;;;;;24.20;16.73;;;5.60;55.00;;;;;;5039085;28;20576;-49
2022/01/13 01:25:03;;;;;;;24.90;15.80;;;5.70;54.80;;;;;;5047632;28;20438;-51
2022/01/13 01:27:37;;;;;;;20.67;15.67;;;5.70;54.70;;;;;;5047379;28;20439;-52
2022/01/13 01:30:13;;;;;;;23.87;16.40;;;5.80;54.70;;;;;;5040426;28;20458;-49
2022/01/13 01:32:40;;;;;;;28.30;17.30;;;5.70;54.50;;;;;;5043190;28;20457;-50
2022/01/13 01:35:13;;;;;;;22.80;16.63;;;5.70;54.60;;;;;;5038564;28;20780;-49
2022/01/13 01:37:39;;;;;;;28.30;17.10;;;5.70;54.70;;;;;;5046955;28;20491;-49
2022/01/13 01:40:06;;;;;;;22.37;15.70;;;5.70;54.70;;;;;;5034781;28;20904;-50
2022/01/13 01:42:32;;;;;;;21.80;15.90;;;5.70;54.80;;;;;;5042619;28;20439;-50
2022/01/13 01:44:59;;;;;;;24.13;15.90;;;5.70;54.80;;;;;;5041636;28;20446;-49
2022/01/13 01:47:28;;;;;;;26.70;17.17;;;5.60;54.70;;;;;;5037433;28;20197;-52
2022/01/13 01:49:57;;;;;;;28.13;17.73;;;5.40;55.00;;;;;;5038455;28;20465;-50
2022/01/13 01:52:23;;;;;;;23.23;15.30;;;5.40;55.30;;;;;;5040816;28;20427;-49
2022/01/13 01:54:49;;;;;;;20.17;14.77;;;5.30;55.40;;;;;;5046473;28;20434;-49
2022/01/13 01:57:16;;;;;;;22.40;16.37;;;5.40;55.60;;;;;;5051732;28;20466;-49
2022/01/13 01:59:43;;;;;;;21.57;16.90;;;5.50;55.70;;;;;;5051128;28;20521;-50
2022/01/13 02:02:11;;;;;;;23.30;15.43;;;5.60;55.50;;;;;;5042739;28;20432;-49
2022/01/13 02:04:37;;;;;;;24.23;17.30;;;5.70;55.40;;;;;;5047614;28;20446;-49
2022/01/13 02:07:07;;;;;;;20.13;15.60;;;5.70;55.20;;;;;;5044626;28;20431;-51
2022/01/13 02:09:37;;;;;;;25.00;17.50;;;5.70;55.70;;;;;;5042101;28;20799;-52
2022/01/13 02:12:09;;;;;;;23.60;15.30;;;5.70;54.80;;;;;;5048320;28;20436;-49
2022/01/13 02:14:54;;;;;;;21.10;16.13;;;5.80;54.60;;;;;;5040515;28;20437;-51
2022/01/13 02:17:26;;;;;;;21.97;16.67;;;5.90;54.60;;;;;;5037781;28;20499;-49
2022/01/13 02:19:55;;;;;;;24.10;16.60;;;5.90;54.50;;;;;;5051399;28;20576;-49
2022/01/13 02:22:22;;;;;;;20.03;15.23;;;5.80;54.50;;;;;;5040782;28;20683;-49
2022/01/13 02:24:48;;;;;;;19.87;16.07;;;5.80;54.60;;;;;;5042995;28;20428;-51
2022/01/13 02:27:14;;;;;;;20.73;16.03;;;5.80;54.80;;;;;;5048674;28;20464;-50
2022/01/13 02:29:40;;;;;;;21.20;15.57;;;5.50;54.90;;;;;;5042074;28;20251;-50
2022/01/13 02:32:06;;;;;;;20.07;15.20;;;5.50;55.30;;;;;;5050371;28;20897;-49
2022/01/13 02:34:33;;;;;;;20.53;15.23;;;5.30;55.40;;;;;;5048251;28;20189;-52
2022/01/13 02:36:59;;;;;;;22.27;16.20;;;5.40;55.60;;;;;;5050149;28;20950;-49
2022/01/13 02:39:27;;;;;;;23.30;17.27;;;5.50;55.50;;;;;;5046905;28;20494;-50
2022/01/13 02:41:54;;;;;;;24.33;17.17;;;5.60;55.20;;;;;;5044221;28;20438;-51
2022/01/13 02:44:22;;;;;;;22.63;16.73;;;5.70;55.00;;;;;;5036887;28;20936;-51
2022/01/13 02:49:24;;;;;;;20.57;15.60;;;5.80;54.70;;;;;;5041187;28;20482;-49
2022/01/13 02:51:52;;;;;;;21.30;15.20;;;5.70;54.80;;;;;;5036795;28;20511;-51
2022/01/13 02:54:18;;;;;;;20.87;15.77;;;5.70;55.10;;;;;;5036994;28;20865;-49
2022/01/13 02:56:44;;;;;;;21.40;15.87;;;5.60;55.20;;;;;;5043857;28;21248;-50
2022/01/13 02:59:11;;;;;;;20.10;15.10;;;5.70;55.30;;;;;;5050790;28;20435;-49
2022/01/13 03:01:38;;;;;;;23.70;16.23;;;5.80;55.00;;;;;;5044554;28;21148;-50
2022/01/13 03:04:07;;;;;;;23.90;16.53;;;5.80;54.80;;;;;;5049325;28;20451;-50
2022/01/13 03:06:35;;;;;;;23.77;16.00;;;5.90;54.80;;;;;;5040721;28;20436;-50
2022/01/13 03:09:04;;;;;;;22.30;16.30;;;6.00;54.90;;;;;;5045190;28;20435;-49
2022/01/13 03:11:32;;;;;;;18.30;14.40;;;5.60;54.50;;;;;;5037995;28;20567;-49
2022/01/13 03:13:57;;;;;;;21.57;15.63;;;5.50;55.60;;;;;;5051841;28;20444;-49
2022/01/13 03:16:23;;;;;;;25.47;16.60;;;5.50;55.90;;;;;;5047265;28;20437;-52
2022/01/13 03:18:49;;;;;;;24.30;16.10;;;5.60;55.80;;;;;;5040796;28;20194;-49
2022/01/13 03:21:15;;;;;;;23.23;16.17;;;5.70;55.50;;;;;;5045103;28;20233;-49
2022/01/13 03:23:42;;;;;;;20.77;15.87;;;5.70;55.30;;;;;;5051736;28;20453;-50
2022/01/13 03:26:07;;;;;;;24.53;16.80;;;5.60;55.30;;;;;;5040478;28;20584;-49
2022/01/13 03:28:50;;;;;;;26.40;18.40;;;5.30;55.90;;;;;;5044021;28;20525;-49
2022/01/13 03:31:18;;;;;;;23.73;16.30;;;5.30;56.20;;;;;;5034945;28;20208;-49
2022/01/13 03:33:43;;;;;;;23.33;16.87;;;5.30;56.10;;;;;;5048232;28;20431;-49
2022/01/13 03:36:09;;;;;;;22.97;17.17;;;5.20;56.30;;;;;;5046456;28;20455;-49
2022/01/13 03:38:35;;;;;;;26.17;18.10;;;5.30;56.30;;;;;;5043125;28;20207;-49
2022/01/13 03:41:01;;;;;;;27.97;18.97;;;5.40;55.90;;;;;;5043643;28;20281;-52
2022/01/13 03:43:27;;;;;;;26.23;17.97;;;5.30;55.80;;;;;;5048007;28;20790;-49
2022/01/13 03:45:53;;;;;;;29.83;19.97;;;5.40;55.70;;;;;;5051600;28;20424;-49
2022/01/13 03:48:19;;;;;;;24.80;18.40;;;5.60;55.40;;;;;;5036609;28;20428;-49
2022/01/13 03:50:45;;;;;;;24.67;17.50;;;5.50;55.10;;;;;;5037316;28;20439;-53
2022/01/13 03:53:28;;;;;;;29.23;19.67;;;5.00;55.00;;;;;;5051064;28;20674;-48
2022/01/13 03:56:32;;;;;;;28.70;19.27;;;4.50;56.20;;;;;;5050552;28;20776;-51
2022/01/13 03:59:35;;;;;;;27.27;18.83;;;4.50;56.50;;;;;;5045503;28;20535;-49
2022/01/13 04:02:11;;;;;;;30.87;19.37;;;4.00;57.00;;;;;;5033148;28;20819;-50
2022/01/13 04:04:41;;;;;;;34.83;20.00;;;4.30;57.20;;;;;;5050987;28;20446;-50
2022/01/13 04:07:21;;;;;;;27.73;18.53;;;4.40;57.20;;;;;;5033407;28;20440;-50
2022/01/13 04:09:46;;;;;;;25.40;17.47;;;4.40;57.30;;;;;;5041268;28;20811;-51
2022/01/13 04:12:14;;;;;;;27.23;19.67;;;4.70;56.80;;;;;;5043256;28;20442;-49
2022/01/13 04:14:48;;;;;;;28.27;18.57;;;4.80;56.10;;;;;;5045225;28;20193;-49
2022/01/13 04:17:19;;;;;;;27.90;18.70;;;4.60;56.00;;;;;;5048586;28;20450;-52
2022/01/13 04:19:45;;;;;;;24.90;17.43;;;4.70;56.40;;;;;;5044942;28;20501;-50
2022/01/13 04:22:12;;;;;;;24.23;17.73;;;4.90;56.20;;;;;;5046241;28;20829;-49
2022/01/13 04:24:39;;;;;;;24.70;17.80;;;5.00;56.40;;;;;;5050568;28;20922;-49
2022/01/13 04:27:07;;;;;;;23.93;18.27;;;4.90;55.60;;;;;;5049658;28;20458;-53
2022/01/13 04:29:37;;;;;;;24.27;18.10;;;4.90;55.90;;;;;;5040024;28;20867;-49
2022/01/13 04:32:04;;;;;;;24.70;17.90;;;5.10;55.70;;;;;;5038319;28;20447;-49
2022/01/13 04:34:31;;;;;;;23.90;17.53;;;5.00;55.90;;;;;;5051406;28;20433;-52
2022/01/13 04:36:59;;;;;;;27.23;18.70;;;5.10;55.80;;;;;;5035940;28;20802;-51
2022/01/13 04:39:27;;;;;;;24.87;18.20;;;5.10;55.70;;;;;;5043578;28;20451;-53
2022/01/13 04:41:53;;;;;;;27.83;18.43;;;5.10;55.80;;;;;;5034353;28;20431;-49
2022/01/13 04:44:21;;;;;;;24.57;17.83;;;5.30;55.50;;;;;;5038078;28;20424;-51
2022/01/13 04:46:47;;;;;;;26.07;19.13;;;5.40;55.00;;;;;;5037653;28;20431;-49
2022/01/13 04:49:13;;;;;;;25.43;18.60;;;5.40;55.00;;;;;;5043408;28;20431;-49
2022/01/13 04:51:40;;;;;;;25.17;17.07;;;5.40;55.10;;;;;;5033750;28;20455;-50
2022/01/13 04:54:07;;;;;;;27.07;18.93;;;5.40;54.90;;;;;;5036742;28;20447;-50
2022/01/13 04:56:52;;;;;;;24.67;17.13;;;5.30;54.60;;;;;;5038644;28;20430;-50
2022/01/13 04:59:19;;;;;;;25.53;17.80;;;5.10;55.10;;;;;;5041379;28;20530;-49
2022/01/13 05:01:44;;;;;;;28.70;18.60;;;5.20;55.30;;;;;;5038631;28;20458;-50
2022/01/13 05:04:10;;;;;;;26.83;18.50;;;5.00;55.30;;;;;;5043648;28;20435;-52
2022/01/13 05:06:36;;;;;;;25.87;18.87;;;5.20;55.60;;;;;;5042212;28;20203;-51
2022/01/13 05:09:02;;;;;;;24.90;18.00;;;5.40;55.30;;;;;;5050602;28;20431;-50
2022/01/13 05:11:28;;;;;;;25.53;18.87;;;5.50;54.90;;;;;;5041668;28;20200;-53
2022/01/13 05:13:54;;;;;;;26.17;18.43;;;5.60;54.60;;;;;;5048772;28;21143;-50
2022/01/13 05:16:28;;;;;;;31.40;18.47;;;5.70;54.10;;;;;;5036443;28;20189;-49
2022/01/13 05:19:11;;;;;;;26.57;17.83;;;5.80;53.80;;;;;;5056569;28;20674;-49
2022/01/13 05:22:15;;;;;;;27.50;19.00;;;5.60;53.30;;;;;;5045877;28;20455;-49
2022/01/13 05:24:31;;;;;;;30.53;18.93;;;5.60;53.70;;;;;;5038939;28;20460;-50
2022/01/13 05:26:56;;;;;;;27.43;19.60;;;5.40;53.90;;;;;;5045635;28;21713;-51
2022/01/13 05:29:22;;;;;;;27.47;19.00;;;5.40;54.00;;;;;;5046910;28;20546;-50
2022/01/13 05:31:49;;;;;;;28.00;19.03;;;5.20;54.30;;;;;;5034705;28;20196;-51
2022/01/13 05:34:16;;;;;;;29.07;19.77;;;5.40;54.40;;;;;;5039826;28;20677;-50
2022/01/13 05:36:42;;;;;;;25.50;18.93;;;5.50;54.10;;;;;;5046597;28;20823;-50
2022/01/13 05:39:08;;;;;;;31.50;19.43;;;5.60;53.80;;;;;;5045583;28;20446;-53
2022/01/13 05:41:33;;;;;;;26.73;17.83;;;5.60;53.60;;;;;;5043345;28;20488;-50
2022/01/13 05:44:00;;;;;;;26.47;18.77;;;5.60;53.50;;;;;;5041230;28;20205;-54
2022/01/13 05:46:25;;;;;;;26.27;18.73;;;5.50;53.60;;;;;;5042554;28;20224;-55
2022/01/13 05:48:54;;;;;;;28.67;19.90;;;5.40;53.90;;;;;;5041095;28;20538;-52
2022/01/13 05:51:20;;;;;;;31.17;19.60;;;5.50;54.00;;;;;;5042841;28;20205;-54
2022/01/13 05:53:46;;;;;;;27.77;19.80;;;5.70;53.90;;;;;;5042491;28;20453;-53
2022/01/13 05:56:12;;;;;;;27.70;19.30;;;5.60;53.70;;;;;;5042038;28;20520;-53
2022/01/13 05:58:38;;;;;;;30.63;19.60;;;5.40;54.10;;;;;;5042864;28;20445;-54
2022/01/13 06:01:04;;;;;;;30.93;17.03;;;5.00;54.40;;;;;;5042763;28;20490;-50
2022/01/13 06:03:30;;;;;;;21.20;14.17;;;5.20;57.40;;;;;;5036976;28;20622;-55
2022/01/13 06:05:55;;;;;;;26.00;18.63;;;5.70;58.30;;;;;;5043509;28;20641;-53
2022/01/13 06:08:21;;;;;;;27.13;18.60;;;6.20;58.30;;;;;;5038612;28;20485;-51
2022/01/13 06:10:46;;;;;;;30.80;19.00;;;6.30;55.20;;;;;;5036409;28;20196;-50
2022/01/13 06:13:13;;;;;;;27.00;18.03;;;6.60;55.20;;;;;;5048231;28;20648;-52
2022/01/13 06:15:39;;;;;;;25.23;18.13;;;6.90;54.90;;;;;;5038177;28;20204;-53
2022/01/13 06:18:13;;;;;;;23.30;18.40;;;6.70;52.90;;;;;;5039843;28;20427;-54
2022/01/13 06:20:39;;;;;;;27.50;21.03;;;6.90;53.40;;;;;;5041332;28;20297;-50
2022/01/13 06:23:07;;;;;;;21.87;17.57;;;7.10;52.60;;;;;;5042805;28;20492;-51
2022/01/13 06:25:33;;;;;;;25.10;18.07;;;6.80;51.50;;;;;;5041761;28;20446;-52
2022/01/13 06:27:59;;;;;;;25.23;18.03;;;6.30;52.40;;;;;;5040717;28;20463;-53
2022/01/13 06:30:24;;;;;;;22.83;17.13;;;6.40;53.50;;;;;;5044920;28;20466;-51
2022/01/13 06:32:50;;;;;;;23.33;17.97;;;6.80;53.30;;;;;;5043124;28;20300;-51
2022/01/13 06:35:15;;;;;;;25.47;17.03;;;7.00;52.40;;;;;;5047520;28;20206;-50
2022/01/13 06:37:41;;;;;;;23.73;17.57;;;7.00;51.60;;;;;;5042788;28;20275;-53
2022/01/13 06:40:09;;;;;;;22.87;17.40;;;7.00;51.10;;;;;;5047376;28;20224;-54
2022/01/13 06:42:35;;;;;;;26.60;18.00;;;6.70;51.50;;;;;;5048053;28;20551;-52
2022/01/13 06:45:01;;;;;;;22.40;17.80;;;6.50;52.20;;;;;;5048012;28;20505;-53
2022/01/13 06:47:26;;;;;;;23.43;17.23;;;6.40;52.20;;;;;;5043420;28;20197;-53
2022/01/13 06:49:52;;;;;;;28.23;18.10;;;6.30;52.30;;;;;;5042547;28;20197;-51
2022/01/13 06:52:18;;;;;;;25.30;19.40;;;6.50;53.00;;;;;;5043652;28;20192;-51
2022/01/13 06:54:44;;;;;;;22.13;17.60;;;6.70;52.30;;;;;;5043052;28;20648;-51
2022/01/13 06:57:09;;;;;;;24.80;17.97;;;7.10;52.20;;;;;;5046373;28;20246;-51
2022/01/13 06:59:35;;;;;;;25.53;19.73;;;7.40;51.90;;;;;;5048590;28;20950;-53
2022/01/13 07:02:02;;;;;;;27.33;19.53;;;7.50;50.10;;;;;;5052011;28;20197;-54
2022/01/13 07:04:28;;;;;;;27.33;19.50;;;7.00;49.90;;;;;;5044204;28;20431;-52
2022/01/13 07:06:54;;;;;;;24.90;19.10;;;7.00;50.50;;;;;;5036756;28;20433;-53
2022/01/13 07:09:21;;;;;;;23.20;18.97;;;7.00;50.50;;;;;;5047180;28;20493;-52
2022/01/13 07:11:47;;;;;;;24.60;18.33;;;6.90;50.50;;;;;;5035257;28;20193;-50
2022/01/13 07:14:13;;;;;;;26.60;19.27;;;6.90;50.70;;;;;;5045039;28;20497;-53
2022/01/13 07:16:41;;;;;;;24.90;17.57;;;6.60;50.80;;;;;;5037184;28;20513;-52
2022/01/13 07:19:09;;;;;;;27.27;19.40;;;6.00;51.90;;;;;;5046574;28;21220;-51
2022/01/13 07:21:34;;;;;;;22.77;18.70;;;5.80;52.80;;;;;;5052000;28;20487;-49
2022/01/13 07:24:00;;;;;;;24.60;18.70;;;5.60;53.20;;;;;;5052667;28;20510;-49
2022/01/13 07:26:26;;;;;;;26.30;17.57;;;5.60;53.70;;;;;;5052236;28;20645;-52
2022/01/13 07:28:51;;;;;;;23.87;17.70;;;5.60;53.60;;;;;;5042197;28;20203;-51
2022/01/13 07:31:17;;;;;;;24.83;19.07;;;5.70;53.60;;;;;;5041637;28;20196;-50
2022/01/13 07:33:43;;;;;;;29.60;18.33;;;5.80;53.40;;;;;;5052693;28;20276;-52
2022/01/13 07:36:10;;;;;;;28.67;19.03;;;5.80;53.20;;;;;;5052129;28;20220;-53
2022/01/13 07:38:35;;;;;;;28.70;19.50;;;5.90;53.20;;;;;;5051666;28;20459;-52
2022/01/13 07:41:01;;;;;;;24.53;17.43;;;5.70;53.20;;;;;;5051889;28;20908;-53
2022/01/13 07:43:27;;;;;;;26.00;18.27;;;5.70;53.70;;;;;;5052455;28;20279;-50
2022/01/13 07:45:53;;;;;;;23.80;17.97;;;5.80;53.60;;;;;;5047273;28;20527;-49
2022/01/13 07:48:20;;;;;;;28.97;19.90;;;5.60;53.90;;;;;;5050112;28;20791;-52
2022/01/13 07:50:46;;;;;;;23.97;17.70;;;5.60;54.40;;;;;;5042428;28;20470;-51
2022/01/13 07:53:12;;;;;;;30.03;17.40;;;5.40;54.90;;;;;;5050107;28;20430;-50
2022/01/13 07:55:38;;;;;;;30.23;19.23;;;5.60;54.90;;;;;;5052287;28;20443;-50
2022/01/13 07:58:03;;;;;;;29.00;19.60;;;5.40;55.00;;;;;;5052830;28;20287;-53
2022/01/13 08:00:29;;;;;;;27.20;19.30;;;5.40;55.70;;;;;;5056909;28;20247;-49
2022/01/13 08:02:55;;;;;;;34.07;19.07;;;5.60;55.60;;;;;;5053533;28;20191;-49
2022/01/13 08:05:21;;;;;;;27.27;18.57;;;5.50;55.30;;;;;;5065342;28;20733;-51
2022/01/13 08:07:46;;;;;;;24.57;18.20;;;5.20;55.60;;;;;;5051796;28;20547;-52
2022/01/13 08:10:12;;;;;;;29.00;19.90;;;5.20;56.30;;;;;;5053507;28;20214;-49
2022/01/13 08:12:38;;;;;;;29.97;17.97;;;5.20;56.30;;;;;;5051198;28;20181;-51
2022/01/13 08:15:08;;;;;;;26.83;17.87;;;5.40;56.00;;;;;;5051939;28;20431;-49
2022/01/13 08:20:18;;;;;;;24.97;18.40;;;5.70;55.00;;;;;;5044110;28;20865;-49
2022/01/13 08:22:43;;;;;;;27.80;19.57;;;5.60;55.20;;;;;;5051018;28;20431;-50
2022/01/13 08:25:10;;;;;;;27.60;18.13;;;5.70;55.00;;;;;;5048565;28;20546;-49
2022/01/13 08:27:37;;;;;;;26.27;17.90;;;5.70;55.00;;;;;;5051268;28;20192;-49
2022/01/13 08:30:04;;;;;;;23.47;17.70;;;5.50;55.70;;;;;;5034285;28;20947;-49
2022/01/13 08:32:30;;;;;;;22.60;17.60;;;5.20;55.80;;;;;;5038345;28;20442;-48
2022/01/13 08:34:55;;;;;;;28.00;17.80;;;4.90;56.60;;;;;;5045027;28;20440;-49
2022/01/13 08:37:21;;;;;;;24.27;17.60;;;4.90;57.20;;;;;;5042018;28;20285;-48
2022/01/13 08:39:47;;;;;;;21.70;15.13;;;5.10;57.10;;;;;;5045614;28;20227;-49
2022/01/13 08:42:13;;;;;;;24.63;17.30;;;5.00;57.10;;;;;;5050941;28;20659;-49
2022/01/13 08:44:40;;;;;;;23.63;16.97;;;4.90;57.40;;;;;;5051329;28;20192;-49
2022/01/13 08:47:06;;;;;;;26.23;16.47;;;4.90;57.60;;;;;;5050677;28;20426;-50
2022/01/13 08:49:31;;;;;;;23.80;15.63;;;4.90;57.50;;;;;;5050325;28;20426;-49
2022/01/13 08:51:58;;;;;;;23.10;17.20;;;5.10;57.60;;;;;;5048933;28;20439;-49
2022/01/13 08:54:24;;;;;;;19.83;14.80;;;5.50;57.10;;;;;;5044668;28;20557;-51
2022/01/13 08:56:49;;;;;;;22.43;14.70;;;5.70;56.20;;;;;;5050805;28;20434;-49
2022/01/13 08:59:15;;;;;;;22.47;15.53;;;5.50;55.80;;;;;;5051038;28;20203;-49
2022/01/13 09:01:42;;;;;;;24.87;14.87;;;5.50;56.10;;;;;;5050134;28;20238;-49
2022/01/13 09:04:07;;;;;;;17.80;13.30;;;5.50;56.20;;;;;;5051000;28;20192;-48
2022/01/13 09:06:33;;;;;;;20.10;13.47;;;5.50;56.30;;;;;;5050387;28;20549;-49
2022/01/13 09:08:59;;;;;;;19.70;14.70;;;5.30;56.80;;;;;;5050816;28;20203;-49
2022/01/13 09:11:24;;;;;;;16.10;13.17;;;5.60;57.10;;;;;;5040865;28;20201;-49
2022/01/13 09:13:56;;;;;;;19.57;13.63;;;5.80;56.50;;;;;;5047455;28;20193;-50
2022/01/13 09:16:24;;;;;;;20.30;13.27;;;6.00;56.20;;;;;;5050340;28;20184;-49
2022/01/13 09:21:27;;;;;;;16.00;11.63;;;5.90;56.80;;;;;;5041334;28;20483;-49
2022/01/13 09:23:53;;;;;;;13.60;11.10;;;6.10;57.50;;;;;;5045744;28;20459;-49
2022/01/13 09:26:19;;;;;;;12.37;9.53;;;6.20;56.60;;;;;;5049996;28;20486;-50
2022/01/13 09:28:45;;;;;;;14.93;10.00;;;6.10;56.90;;;;;;5049818;28;20431;-48
2022/01/13 09:31:10;;;;;;;10.00;7.17;;;6.20;56.80;;;;;;5049811;28;20219;-50
2022/01/13 09:33:36;;;;;;;11.60;8.83;;;5.80;57.10;;;;;;5052684;28;20307;-48
2022/01/13 09:36:04;;;;;;;13.03;8.90;;;5.50;58.60;;;;;;5039863;28;20239;-50
2022/01/13 09:38:29;;;;;;;14.53;11.23;;;5.80;58.50;;;;;;5048054;28;20249;-49
2022/01/13 09:40:56;;;;;;;14.47;10.60;;;5.90;57.90;;;;;;5048853;28;20495;-51
2022/01/13 09:43:25;;;;;;;14.37;9.93;;;6.00;57.50;;;;;;5045216;28;20693;-49
2022/01/13 09:45:52;;;;;;;14.57;9.50;;;6.20;57.80;;;;;;5047110;28;20884;-49
2022/01/13 09:48:17;;;;;;;14.43;10.23;;;6.70;56.50;;;;;;5058225;28;20797;-49
2022/01/13 09:50:46;;;;;;;13.67;10.60;;;7.00;55.60;;;;;;5044477;28;20445;-53
2022/01/13 09:53:12;;;;;;;14.77;10.27;;;7.10;54.80;;;;;;5053027;28;20199;-49
2022/01/13 09:55:39;;;;;;;20.03;13.00;;;7.30;54.00;;;;;;5055954;28;20467;-49
2022/01/13 09:58:10;;;;;;;13.43;10.03;;;7.10;54.00;;;;;;5050982;28;20466;-50
2022/01/13 10:00:40;;;;;;;15.23;10.97;;;7.00;54.40;;;;;;5041126;28;20532;-49
2022/01/13 10:03:11;;;;;;;12.93;10.23;;;7.30;54.30;;;;;;5046063;28;20450;-52
2022/01/13 10:05:47;;;;;;;12.83;10.33;;;7.60;53.70;;;;;;5048192;28;20431;-50
2022/01/13 10:08:13;;;;;;;14.30;10.87;;;7.50;53.20;;;;;;5052770;28;20441;-53
2022/01/13 10:10:39;;;;;;;15.70;10.83;;;7.80;53.10;;;;;;5049184;28;20423;-49
2022/01/13 10:13:09;;;;;;;14.40;10.87;;;8.20;52.30;;;;;;5051806;28;20628;-49
2022/01/13 10:18:43;;;;;;;16.67;10.37;;;8.80;50.80;;;;;;5052616;28;20496;-49
2022/01/13 10:21:12;;;;;;;14.50;10.63;;;9.20;50.10;;;;;;5045118;28;20491;-49
2022/01/13 10:23:58;;;;;;;15.30;10.70;;;9.40;49.40;;;;;;5045627;28;20805;-50
2022/01/13 10:26:23;;;;;;;11.60;9.33;;;9.60;49.10;;;;;;5053332;28;20434;-49
2022/01/13 10:28:52;;;;;;;14.63;10.30;;;9.70;48.50;;;;;;5053937;28;20952;-51
2022/01/13 10:31:18;;;;;;;12.00;10.00;;;10.00;47.50;;;;;;5053134;28;20200;-51
2022/01/13 10:33:43;;;;;;;11.47;9.13;;;10.10;47.30;;;;;;5053962;28;20510;-49
2022/01/13 10:36:11;;;;;;;11.87;10.07;;;9.60;48.30;;;;;;5046538;28;20204;-49
2022/01/13 10:38:55;;;;;;;11.50;9.63;;;9.90;48.90;;;;;;5050869;28;20231;-50
2022/01/13 10:44:21;;;;;;;10.07;8.70;;;10.20;46.80;;;;;;5053588;28;20446;-49
2022/01/13 10:47:03;;;;;;;11.63;8.40;;;10.30;47.60;;;;;;5053236;28;20772;-50
2022/01/13 10:49:35;;;;;;;8.70;7.60;;;10.70;46.80;;;;;;5052999;28;20442;-52
2022/01/13 10:52:26;;;;;;;9.63;8.10;;;10.90;46.40;;;;;;5052918;28;20922;-52
2022/01/13 10:55:06;;;;;;;10.40;7.50;;;10.80;46.50;;;;;;5051743;28;20435;-49
2022/01/13 10:57:33;;;;;;;10.20;8.00;;;10.90;46.10;;;;;;5052734;28;20423;-53
2022/01/13 10:59:59;;;;;;;10.83;8.13;;;11.10;46.30;;;;;;5052882;28;20497;-49
2022/01/13 11:02:25;;;;;;;10.97;8.30;;;10.90;45.90;;;;;;5052631;28;21002;-52
2022/01/13 11:04:51;;;;;;;11.93;9.03;;;10.80;46.20;;;;;;5054355;28;20437;-50
2022/01/13 11:07:24;;;;;;;10.50;8.50;;;10.60;46.20;;;;;;5049227;28;21133;-51
2022/01/13 11:10:03;;;;;;;9.70;8.67;;;10.70;46.90;;;;;;5063447;28;20200;-49
2022/01/13 11:12:36;;;;;;;9.63;8.23;;;11.10;46.10;;;;;;5055078;28;20435;-52
2022/01/13 11:15:08;;;;;;;8.93;7.73;;;11.50;45.20;;;;;;5060438;28;20461;-50
2022/01/13 11:17:38;;;;;;;10.17;8.60;;;11.70;44.90;;;;;;5046135;28;20455;-49
2022/01/13 11:20:06;;;;;;;13.63;9.30;;;11.90;44.20;;;;;;5043041;28;20502;-49
2022/01/13 11:22:37;;;;;;;11.23;8.33;;;12.00;43.90;;;;;;5048979;28;20938;-50
2022/01/13 11:25:07;;;;;;;12.40;8.23;;;12.20;44.10;;;;;;5048022;28;20446;-51
2022/01/13 11:27:33;;;;;;;9.73;7.70;;;12.40;43.10;;;;;;5046254;28;20913;-50
2022/01/13 11:30:00;;;;;;;8.90;7.43;;;12.40;43.40;;;;;;5052388;28;20522;-50
2022/01/13 11:32:26;;;;;;;9.10;7.30;;;12.50;43.00;;;;;;5050039;28;21025;-50
2022/01/13 11:34:55;;;;;;;9.67;7.83;;;12.50;43.40;;;;;;5052461;28;20438;-50
2022/01/13 11:37:28;;;;;;;12.33;8.23;;;12.40;43.20;;;;;;5051511;28;20496;-50
2022/01/13 11:39:54;;;;;;;11.50;7.97;;;12.40;43.20;;;;;;5051984;28;20465;-50
2022/01/13 11:42:20;;;;;;;9.93;7.97;;;12.30;43.80;;;;;;5052111;28;20469;-49
2022/01/13 11:45:15;;;;;;;11.90;9.50;;;11.90;44.20;;;;;;5042508;28;20833;-50
2022/01/13 11:47:42;;;;;;;11.23;8.73;;;11.40;44.60;;;;;;5051846;28;20189;-49
2022/01/13 11:50:20;;;;;;;8.97;8.07;;;10.80;46.00;;;;;;5052086;28;20513;-50
2022/01/13 11:52:56;;;;;;;10.70;8.80;;;10.90;46.10;;;;;;5051770;28;20505;-50
2022/01/13 11:55:32;;;;;;;11.57;8.43;;;11.00;45.60;;;;;;5052408;28;20419;-51
2022/01/13 11:58:15;;;;;;;12.40;9.53;;;11.20;45.30;;;;;;5051746;28;20441;-49
2022/01/13 12:00:42;;;;;;;13.50;10.10;;;11.40;44.90;;;;;;5047346;28;20487;-50
2022/01/13 12:03:29;;;;;;;10.17;8.30;;;11.50;44.70;;;;;;5051209;28;20788;-49
2022/01/13 12:05:57;;;;;;;12.93;8.37;;;11.50;45.00;;;;;;5051139;28;20969;-49
2022/01/13 12:08:40;;;;;;;10.90;8.50;;;11.40;44.70;;;;;;5052164;28;20776;-50
2022/01/13 12:11:08;;;;;;;11.53;8.40;;;11.40;44.90;;;;;;5051098;28;20419;-49
2022/01/13 12:13:36;;;;;;;11.77;9.80;;;11.70;44.70;;;;;;5051899;28;20427;-50
2022/01/13 12:16:03;;;;;;;11.47;8.50;;;11.90;44.40;;;;;;5050869;28;20427;-51
2022/01/13 12:19:03;;;;;;;9.97;8.40;;;12.00;44.40;;;;;;5042485;28;20450;-49
2022/01/13 12:21:37;;;;;;;8.97;7.30;;;12.00;44.30;;;;;;5047968;28;20535;-49
2022/01/13 12:24:07;;;;;;;10.80;8.23;;;12.10;44.30;;;;;;5049959;28;20451;-49
2022/01/13 12:26:32;;;;;;;12.40;9.07;;;12.30;43.80;;;;;;5045037;28;21526;-49
2022/01/13 12:29:21;;;;;;;10.30;8.37;;;12.40;43.50;;;;;;5053202;28;20447;-49
2022/01/13 12:32:07;;;;;;;10.03;8.50;;;12.60;42.90;;;;;;5041746;28;20556;-51
2022/01/13 12:34:33;;;;;;;11.77;8.87;;;12.20;43.40;;;;;;5045242;28;20427;-49
2022/01/13 12:37:22;;;;;;;10.17;7.70;;;12.20;43.80;;;;;;5050109;28;20438;-50
2022/01/13 12:39:52;;;;;;;8.70;7.00;;;12.10;43.60;;;;;;5040990;28;20595;-50
2022/01/13 12:42:24;;;;;;;12.43;8.70;;;12.20;43.50;;;;;;5041077;28;20942;-52
2022/01/13 12:47:36;;;;;;;9.93;7.90;;;12.20;43.80;;;;;;5050695;28;20430;-50
2022/01/13 12:50:12;;;;;;;11.17;8.70;;;12.40;42.80;;;;;;5050704;28;20443;-50
2022/01/13 12:52:38;;;;;;;12.40;9.43;;;12.50;43.10;;;;;;5031486;28;20562;-50
2022/01/13 12:55:04;;;;;;;11.50;8.30;;;12.70;42.70;;;;;;5050886;28;20415;-49
2022/01/13 12:57:30;;;;;;;11.40;9.63;;;12.90;42.60;;;;;;5040708;28;20262;-52
2022/01/13 12:59:57;;;;;;;10.63;9.10;;;12.70;41.70;;;;;;5050312;28;20471;-50
2022/01/13 13:02:23;;;;;;;13.00;8.53;;;12.80;42.80;;;;;;5050508;28;20940;-49
2022/01/13 13:04:48;;;;;;;10.67;7.87;;;12.70;41.90;;;;;;5051077;28;20450;-49
2022/01/13 13:07:14;;;;;;;10.60;8.90;;;12.30;42.70;;;;;;5050799;28;20250;-49
2022/01/13 13:09:40;;;;;;;9.57;7.97;;;12.40;42.90;;;;;;5045251;28;20203;-51
2022/01/13 13:12:11;;;;;;;10.87;8.37;;;12.60;42.80;;;;;;5050173;28;20196;-52